Time;durP1;ratioP1;P1;durP2;ratioP2;P2;SDS_P1;SDS_P2;PMS_P1;PMS_P2;Temp;Humidity;BMP_temperature;BMP_pressure;BME280_temperature;BME280_humidity;BME280_pressure;Samples;Min_cycle;Max_cycle;Signal;HPM_P1;HPM_P2
2021/11/08 00:00:28;;;;;;;;;;;22.90;48.00;;;;;;1531314;76;1547;-59
2021/11/08 00:02:31;;;;;;;;;;;22.90;48.00;;;;;;1528312;76;1908;-56
2021/11/08 00:04:34;;;;;;;;;;;22.90;48.10;;;;;;1526726;76;743;-56
2021/11/08 00:06:36;;;;;;;;;;;22.90;48.10;;;;;;1529071;76;1129;-59
2021/11/08 00:08:39;;;;;;;;;;;22.90;48.10;;;;;;1531484;76;786;-58
2021/11/08 00:10:41;;;;;;;;;;;22.90;48.20;;;;;;1531349;76;782;-56
2021/11/08 00:12:43;;;;;;;;;;;22.90;48.10;;;;;;1528894;76;803;-59
2021/11/08 00:14:46;;;;;;;;;;;22.90;48.20;;;;;;1529354;76;854;-57
2021/11/08 00:17:05;;;;;;;;;;;22.90;48.30;;;;;;1529475;76;1052;-58
2021/11/08 00:21:08;;;;;;;;;;;22.90;48.40;;;;;;1526860;76;2102;-60
2021/11/08 00:23:10;;;;;;;;;;;22.90;48.40;;;;;;1531324;76;705;-60
2021/11/08 00:25:12;;;;;;;;;;;22.90;48.40;;;;;;1527281;76;1099;-57
2021/11/08 00:27:14;;;;;;;;;;;23.00;48.40;;;;;;1531473;76;749;-60
2021/11/08 00:29:16;;;;;;;;;;;22.90;48.40;;;;;;1531353;76;773;-59
2021/11/08 00:31:18;;;;;;;;;;;23.00;48.50;;;;;;1528963;76;778;-59
2021/11/08 00:33:20;;;;;;;;;;;23.00;48.60;;;;;;1524936;76;806;-60
2021/11/08 00:35:22;;;;;;;;;;;23.00;48.50;;;;;;1530622;76;1208;-59
2021/11/08 00:37:24;;;;;;;;;;;22.90;48.50;;;;;;1529682;76;744;-59
2021/11/08 00:39:26;;;;;;;;;;;23.00;48.50;;;;;;1531529;76;788;-59
2021/11/08 00:41:28;;;;;;;;;;;23.00;48.40;;;;;;1524691;76;1900;-60
2021/11/08 00:43:30;;;;;;;;;;;23.00;48.40;;;;;;1531635;76;735;-58
2021/11/08 00:45:32;;;;;;;;;;;23.00;48.40;;;;;;1529397;76;1117;-58
2021/11/08 00:47:35;;;;;;;;;;;23.00;48.40;;;;;;1529004;76;749;-57
2021/11/08 00:49:38;;;;;;;;;;;22.90;48.40;;;;;;1528895;76;751;-59
2021/11/08 00:51:43;;;;;;;;;;;23.00;48.50;;;;;;1529260;76;820;-60
2021/11/08 00:53:44;;;;;;;;;;;23.00;48.40;;;;;;1528934;76;1673;-60
2021/11/08 00:55:47;;;;;;;;;;;23.00;48.40;;;;;;1525285;76;1141;-56
2021/11/08 00:57:50;;;;;;;;;;;22.90;48.30;;;;;;1529461;76;746;-58
2021/11/08 00:59:53;;;;;;;;;;;22.90;48.40;;;;;;1528973;76;720;-59
2021/11/08 01:01:58;;;;;;;;;;;22.90;48.40;;;;;;1527224;76;1929;-60
2021/11/08 01:03:59;;;;;;;;;;;22.90;48.40;;;;;;1529550;76;1668;-58
2021/11/08 01:06:01;;;;;;;;;;;22.90;48.40;;;;;;1532507;76;1142;-57
2021/11/08 01:08:04;;;;;;;;;;;22.90;48.40;;;;;;1531605;76;834;-58
2021/11/08 01:10:06;;;;;;;;;;;22.90;48.40;;;;;;1531199;76;886;-55
2021/11/08 01:12:09;;;;;;;;;;;23.00;48.40;;;;;;1530113;76;675;-60
2021/11/08 01:14:11;;;;;;;;;;;22.90;48.40;;;;;;1530881;76;694;-56
2021/11/08 01:16:13;;;;;;;;;;;22.90;48.40;;;;;;1531255;76;1145;-58
2021/11/08 01:18:16;;;;;;;;;;;22.90;48.40;;;;;;1529626;76;758;-58
2021/11/08 01:20:18;;;;;;;;;;;22.90;48.40;;;;;;1534051;76;724;-57
2021/11/08 01:22:21;;;;;;;;;;;22.90;48.40;;;;;;1529342;76;1945;-60
2021/11/08 01:24:23;;;;;;;;;;;22.90;48.40;;;;;;1529887;76;799;-60
2021/11/08 01:26:26;;;;;;;;;;;22.90;48.40;;;;;;1540126;75;1125;-61
2021/11/08 01:28:35;;;;;;;;;;;22.90;48.40;;;;;;1528576;76;694;-60
2021/11/08 01:30:34;;;;;;;;;;;22.90;48.40;;;;;;1545971;76;1549;-57
2021/11/08 01:32:36;;;;;;;;;;;22.90;48.40;;;;;;1530905;76;775;-57
2021/11/08 01:34:38;;;;;;;;;;;22.90;48.40;;;;;;1520209;76;846;-60
2021/11/08 01:36:42;;;;;;;;;;;22.90;48.40;;;;;;1528695;76;1095;-56
2021/11/08 01:38:51;;;;;;;;;;;22.80;48.20;;;;;;1533025;76;2073;-57
2021/11/08 01:40:53;;;;;;;;;;;22.90;48.40;;;;;;1548966;76;747;-60
2021/11/08 01:42:55;;;;;;;;;;;22.90;48.40;;;;;;1523477;76;1917;-59
2021/11/08 01:44:56;;;;;;;;;;;22.90;48.40;;;;;;1528142;76;1129;-60
2021/11/08 01:46:59;;;;;;;;;;;22.90;48.30;;;;;;1529029;76;710;-60
2021/11/08 01:49:01;;;;;;;;;;;22.80;48.20;;;;;;1541636;76;855;-60
2021/11/08 01:51:02;;;;;;;;;;;22.90;48.30;;;;;;1546176;76;724;-60
2021/11/08 01:53:04;;;;;;;;;;;22.80;48.20;;;;;;1538714;76;696;-58
2021/11/08 01:55:06;;;;;;;;;;;22.90;48.30;;;;;;1531563;76;1077;-58
2021/11/08 01:57:08;;;;;;;;;;;22.80;48.20;;;;;;1525283;76;705;-56
2021/11/08 01:59:10;;;;;;;;;;;22.90;48.30;;;;;;1530315;76;652;-60
2021/11/08 02:01:13;;;;;;;;;;;22.90;48.30;;;;;;1530731;76;755;-59
2021/11/08 02:03:16;;;;;;;;;;;22.90;48.40;;;;;;1541659;76;1910;-57
2021/11/08 02:05:18;;;;;;;;;;;22.90;48.40;;;;;;1541261;76;1327;-57
2021/11/08 02:07:20;;;;;;;;;;;22.90;48.40;;;;;;1531062;76;813;-60
2021/11/08 02:09:22;;;;;;;;;;;22.90;48.40;;;;;;1527847;76;679;-60
2021/11/08 02:11:24;;;;;;;;;;;22.90;48.40;;;;;;1531416;76;749;-60
2021/11/08 02:13:26;;;;;;;;;;;22.90;48.40;;;;;;1529372;76;716;-60
2021/11/08 02:15:28;;;;;;;;;;;22.90;48.40;;;;;;1532517;76;1170;-60
2021/11/08 02:17:31;;;;;;;;;;;22.90;48.50;;;;;;1531580;76;677;-60
2021/11/08 02:19:33;;;;;;;;;;;22.90;48.50;;;;;;1528712;76;796;-59
2021/11/08 02:21:36;;;;;;;;;;;22.90;48.40;;;;;;1529490;76;774;-60
2021/11/08 02:23:38;;;;;;;;;;;22.90;48.40;;;;;;1532633;76;1923;-57
2021/11/08 02:25:41;;;;;;;;;;;22.90;48.40;;;;;;1526416;76;1154;-58
2021/11/08 02:27:43;;;;;;;;;;;22.90;48.40;;;;;;1542554;76;820;-59
2021/11/08 02:29:46;;;;;;;;;;;22.90;48.40;;;;;;1529011;76;801;-60
2021/11/08 02:31:50;;;;;;;;;;;22.90;48.40;;;;;;1550973;72;221634;-66
2021/11/08 02:33:52;;;;;;;;;;;22.90;48.30;;;;;;1582311;73;1577;-69
2021/11/08 02:35:55;;;;;;;;;;;22.90;48.30;;;;;;1598864;73;768;-69
2021/11/08 02:37:57;;;;;;;;;;;22.90;48.40;;;;;;1586308;73;804;-69
2021/11/08 02:40:00;;;;;;;;;;;22.90;48.20;;;;;;1605294;73;734;-71
2021/11/08 02:42:03;;;;;;;;;;;23.00;48.30;;;;;;1607794;73;1928;-71
2021/11/08 02:44:05;;;;;;;;;;;22.90;48.20;;;;;;1605805;73;738;-72
2021/11/08 02:46:19;;;;;;;;;;;22.90;48.20;;;;;;1613796;73;776;-73
2021/11/08 02:48:20;;;;;;;;;;;22.90;48.20;;;;;;1613926;73;1839;-73
2021/11/08 02:50:23;;;;;;;;;;;22.90;48.20;;;;;;1611651;73;730;-72
2021/11/08 02:52:26;;;;;;;;;;;22.90;48.20;;;;;;1621016;73;1107;-74
2021/11/08 02:54:32;;;;;;;;;;;22.90;48.20;;;;;;1618478;73;767;-76
2021/11/08 02:56:32;;;;;;;;;;;22.90;48.20;;;;;;1626218;73;1362;-76
2021/11/08 02:58:34;;;;;;;;;;;22.90;48.20;;;;;;1622027;73;718;-73
2021/11/08 03:00:36;;;;;;;;;;;22.90;48.30;;;;;;1621055;73;821;-75
2021/11/08 03:02:40;;;;;;;;;;;22.90;48.30;;;;;;1606763;73;1957;-73
2021/11/08 03:04:43;;;;;;;;;;;22.90;48.40;;;;;;1611250;73;900;-74
2021/11/08 03:06:45;;;;;;;;;;;22.90;48.40;;;;;;1617255;73;738;-71
2021/11/08 03:08:47;;;;;;;;;;;22.90;48.40;;;;;;1599606;73;789;-72
2021/11/08 03:10:55;;;;;;;;;;;22.90;48.40;;;;;;1599723;73;718;-71
2021/11/08 03:12:56;;;;;;;;;;;22.90;48.40;;;;;;1596047;73;1577;-72
2021/11/08 03:15:04;;;;;;;;;;;22.90;48.40;;;;;;1591537;73;1716;-74
2021/11/08 03:17:01;;;;;;;;;;;22.90;48.40;;;;;;1590128;73;1601;-73
2021/11/08 03:19:13;;;;;;;;;;;22.90;48.30;;;;;;1597676;73;713;-72
2021/11/08 03:21:15;;;;;;;;;;;22.90;48.30;;;;;;1600406;73;1640;-71
2021/11/08 03:23:12;;;;;;;;;;;22.80;48.20;;;;;;1600869;73;1938;-73
2021/11/08 03:29:31;;;;;;;;;;;22.90;48.30;;;;;;1591805;73;754;-69
2021/11/08 03:31:35;;;;;;;;;;;22.90;48.30;;;;;;1592641;73;1123;-69
2021/11/08 03:33:37;;;;;;;;;;;22.90;48.40;;;;;;1612895;73;791;-73
2021/11/08 03:35:39;;;;;;;;;;;22.90;48.40;;;;;;1597990;73;776;-68
2021/11/08 03:37:42;;;;;;;;;;;22.90;48.40;;;;;;1604131;73;716;-69
2021/11/08 03:39:44;;;;;;;;;;;22.90;48.40;;;;;;1594016;73;759;-69
2021/11/08 03:41:46;;;;;;;;;;;22.90;48.40;;;;;;1603226;73;1142;-69
2021/11/08 03:43:49;;;;;;;;;;;22.90;48.30;;;;;;1597636;73;1938;-69
2021/11/08 03:45:51;;;;;;;;;;;23.00;48.20;;;;;;1601504;73;721;-70
2021/11/08 03:47:54;;;;;;;;;;;23.00;48.40;;;;;;1603904;73;761;-71
2021/11/08 03:49:56;;;;;;;;;;;23.00;48.40;;;;;;1605587;73;814;-71
2021/11/08 03:51:58;;;;;;;;;;;23.00;48.30;;;;;;1592388;73;1130;-68
2021/11/08 03:54:00;;;;;;;;;;;23.10;48.50;;;;;;1608540;73;814;-76
2021/11/08 03:56:02;;;;;;;;;;;23.00;48.40;;;;;;1615074;73;726;-78
2021/11/08 03:58:04;;;;;;;;;;;23.10;48.50;;;;;;1617030;73;727;-78
2021/11/08 04:00:10;;;;;;;;;;;23.00;48.40;;;;;;1621238;72;714;-75
2021/11/08 04:02:12;;;;;;;;;;;23.10;48.50;;;;;;1617121;72;1135;-79
2021/11/08 04:04:14;;;;;;;;;;;23.00;48.40;;;;;;1609358;72;2092;-76
2021/11/08 04:06:16;;;;;;;;;;;23.00;48.40;;;;;;1603217;73;760;-77
2021/11/08 04:08:21;;;;;;;;;;;23.00;48.30;;;;;;1605127;73;774;-75
2021/11/08 04:10:21;;;;;;;;;;;23.00;48.40;;;;;;1610533;73;1601;-76
2021/11/08 04:12:24;;;;;;;;;;;23.00;48.30;;;;;;1618071;72;1055;-76
2021/11/08 04:14:26;;;;;;;;;;;23.00;48.40;;;;;;1618996;73;780;-73
2021/11/08 04:16:29;;;;;;;;;;;23.00;48.40;;;;;;1619376;73;778;-76
2021/11/08 04:18:31;;;;;;;;;;;23.00;48.40;;;;;;1618540;73;797;-77
2021/11/08 04:20:33;;;;;;;;;;;23.00;48.40;;;;;;1599853;73;717;-77
2021/11/08 04:22:36;;;;;;;;;;;23.00;48.40;;;;;;1592606;73;1946;-80
2021/11/08 04:24:38;;;;;;;;;;;23.00;48.40;;;;;;1593954;73;710;-79
2021/11/08 04:26:40;;;;;;;;;;;23.00;48.40;;;;;;1595362;73;748;-78
2021/11/08 04:28:49;;;;;;;;;;;23.00;48.40;;;;;;1610169;73;769;-76
2021/11/08 04:30:45;;;;;;;;;;;23.00;48.40;;;;;;1605286;73;1637;-77
2021/11/08 04:35:06;;;;;;;;;;;23.00;48.40;;;;;;1599847;73;875;-78
2021/11/08 04:40:00;;;;;;;;;;;22.90;48.40;;;;;;1608229;73;1619;-78
2021/11/08 04:42:00;;;;;;;;;;;22.90;48.50;;;;;;1596788;73;1687;-77
2021/11/08 04:44:04;;;;;;;;;;;23.00;48.60;;;;;;1598024;73;1917;-76
2021/11/08 04:48:41;;;;;;;;;;;22.90;48.70;;;;;;1603588;73;1600;-75
2021/11/08 04:50:31;;;;;;;;;;;22.90;48.60;;;;;;1605216;73;1484;-75
2021/11/08 05:30:39;;;;;;;;;;;22.90;49.10;;;;;;1623312;73;744;-75
2021/11/08 05:32:45;;;;;;;;;;;22.80;48.90;;;;;;1612752;73;1095;-76
2021/11/08 05:34:47;;;;;;;;;;;22.90;49.00;;;;;;1597732;73;1913;-75
2021/11/08 05:36:49;;;;;;;;;;;22.90;49.00;;;;;;1626453;73;1089;-76
2021/11/08 05:38:51;;;;;;;;;;;22.90;49.00;;;;;;1624167;73;724;-76
2021/11/08 05:40:53;;;;;;;;;;;22.90;49.00;;;;;;1628417;73;800;-76
2021/11/08 05:42:55;;;;;;;;;;;22.90;48.90;;;;;;1608657;72;1941;-76
2021/11/08 05:44:56;;;;;;;;;;;22.90;48.90;;;;;;1620372;73;677;-76
2021/11/08 05:46:58;;;;;;;;;;;22.90;49.00;;;;;;1631810;73;754;-75
2021/11/08 05:49:00;;;;;;;;;;;22.90;48.90;;;;;;1624374;73;852;-75
2021/11/08 05:51:02;;;;;;;;;;;22.90;48.90;;;;;;1606266;73;1127;-76
2021/11/08 05:53:05;;;;;;;;;;;22.90;48.90;;;;;;1598678;73;1030;-76
2021/11/08 05:55:10;;;;;;;;;;;22.80;48.90;;;;;;1608675;73;713;-76
2021/11/08 06:50:46;;;;;;;;;;;23.00;48.60;;;;;;1607107;73;1600;-69
2021/11/08 06:52:50;;;;;;;;;;;23.00;48.60;;;;;;1616858;72;1103;-69
2021/11/08 06:54:51;;;;;;;;;;;23.00;48.50;;;;;;1616444;73;1660;-69
2021/11/08 06:56:57;;;;;;;;;;;23.00;48.50;;;;;;1618414;73;646;-68
2021/11/08 06:58:57;;;;;;;;;;;23.00;48.40;;;;;;1614946;73;1493;-72
2021/11/08 07:00:59;;;;;;;;;;;23.00;48.40;;;;;;1609109;73;1124;-69
2021/11/08 07:03:01;;;;;;;;;;;22.90;48.40;;;;;;1613945;73;824;-67
2021/11/08 07:05:02;;;;;;;;;;;23.00;48.40;;;;;;1623552;73;1934;-70
2021/11/08 07:07:06;;;;;;;;;;;23.00;48.40;;;;;;1618267;73;797;-69
2021/11/08 07:09:08;;;;;;;;;;;22.90;48.40;;;;;;1609691;73;801;-70
2021/11/08 07:11:10;;;;;;;;;;;22.90;48.30;;;;;;1611323;73;1142;-69
2021/11/08 07:13:12;;;;;;;;;;;22.90;48.30;;;;;;1620927;73;752;-75
2021/11/08 07:15:14;;;;;;;;;;;23.00;48.10;;;;;;1611603;73;739;-76
2021/11/08 07:17:15;;;;;;;;;;;22.90;46.70;;;;;;1626804;73;730;-75
2021/11/08 07:19:17;;;;;;;;;;;22.90;45.70;;;;;;1623539;73;886;-77
2021/11/08 07:21:19;;;;;;;;;;;22.80;44.90;;;;;;1611390;73;1181;-77
2021/11/08 07:23:21;;;;;;;;;;;22.80;44.40;;;;;;1608975;73;1939;-78
2021/11/08 07:25:24;;;;;;;;;;;22.80;43.80;;;;;;1623948;73;800;-78
2021/11/08 07:27:26;;;;;;;;;;;22.80;43.50;;;;;;1619480;73;789;-74
2021/11/08 07:29:28;;;;;;;;;;;22.70;43.10;;;;;;1620808;73;750;-75
2021/11/08 07:31:30;;;;;;;;;;;22.70;42.80;;;;;;1615272;73;1179;-75
2021/11/08 07:33:32;;;;;;;;;;;22.70;42.20;;;;;;1620314;73;729;-76
2021/11/08 07:35:34;;;;;;;;;;;22.70;42.20;;;;;;1613972;73;800;-77
2021/11/08 07:37:36;;;;;;;;;;;22.60;42.00;;;;;;1615496;73;734;-77
2021/11/08 07:39:37;;;;;;;;;;;22.60;41.80;;;;;;1607982;73;710;-77
2021/11/08 07:41:39;;;;;;;;;;;22.60;41.70;;;;;;1618506;72;1105;-79
2021/11/08 07:43:41;;;;;;;;;;;22.50;41.50;;;;;;1608351;73;1934;-76
2021/11/08 07:45:43;;;;;;;;;;;22.40;41.30;;;;;;1608269;73;706;-75
2021/11/08 07:47:45;;;;;;;;;;;22.50;41.30;;;;;;1603579;73;813;-75
2021/11/08 07:49:47;;;;;;;;;;;22.50;41.00;;;;;;1601903;73;673;-77
2021/11/08 07:51:50;;;;;;;;;;;22.40;41.00;;;;;;1605724;73;1173;-80
2021/11/08 07:53:52;;;;;;;;;;;22.40;40.90;;;;;;1631023;73;786;-76
2021/11/08 07:55:54;;;;;;;;;;;22.40;40.70;;;;;;1612089;73;667;-76
2021/11/08 07:57:55;;;;;;;;;;;22.40;40.80;;;;;;1610521;73;723;-77
2021/11/08 07:59:57;;;;;;;;;;;22.40;40.80;;;;;;1609529;73;706;-76
2021/11/08 08:01:59;;;;;;;;;;;22.30;40.70;;;;;;1619572;73;1129;-76
2021/11/08 08:04:01;;;;;;;;;;;22.30;40.80;;;;;;1620056;73;1922;-77
2021/11/08 08:06:03;;;;;;;;;;;22.30;41.10;;;;;;1619678;73;760;-77
2021/11/08 08:08:05;;;;;;;;;;;22.30;41.00;;;;;;1609859;73;706;-77
2021/11/08 08:10:07;;;;;;;;;;;22.30;40.80;;;;;;1614253;73;817;-77
2021/11/08 08:12:09;;;;;;;;;;;22.30;40.90;;;;;;1600580;73;1158;-77
2021/11/08 08:14:11;;;;;;;;;;;22.40;40.90;;;;;;1607965;72;686;-77
2021/11/08 08:16:14;;;;;;;;;;;22.40;40.90;;;;;;1615506;73;752;-77
2021/11/08 08:18:16;;;;;;;;;;;22.40;40.90;;;;;;1623195;73;707;-77
2021/11/08 08:20:18;;;;;;;;;;;22.30;40.90;;;;;;1615762;73;780;-77
2021/11/08 08:22:21;;;;;;;;;;;22.40;41.00;;;;;;1611286;73;1131;-74
2021/11/08 08:24:23;;;;;;;;;;;22.40;41.00;;;;;;1625128;73;1912;-74
2021/11/08 08:26:26;;;;;;;;;;;22.40;41.20;;;;;;1615229;73;630;-76
2021/11/08 08:28:28;;;;;;;;;;;22.40;41.30;;;;;;1608764;73;1750;-77
2021/11/08 08:30:30;;;;;;;;;;;22.40;41.10;;;;;;1624652;73;757;-74
2021/11/08 08:32:32;;;;;;;;;;;22.40;40.90;;;;;;1585742;73;220615;-68
2021/11/08 08:34:33;;;;;;;;;;;22.40;40.70;;;;;;1571784;74;779;-67
2021/11/08 08:36:35;;;;;;;;;;;22.40;40.50;;;;;;1564552;74;784;-68
2021/11/08 08:38:38;;;;;;;;;;;22.40;40.50;;;;;;1580875;74;699;-68
2021/11/08 08:40:41;;;;;;;;;;;22.40;40.40;;;;;;1570854;74;1218;-69
2021/11/08 08:42:43;;;;;;;;;;;22.40;40.30;;;;;;1599231;73;726;-69
2021/11/08 08:44:45;;;;;;;;;;;22.40;40.20;;;;;;1593419;73;1945;-68
2021/11/08 08:46:47;;;;;;;;;;;22.40;40.00;;;;;;1599482;73;219743;-58
2021/11/08 08:48:49;;;;;;;;;;;22.50;40.10;;;;;;1563791;74;682;-57
2021/11/08 08:50:51;;;;;;;;;;;22.40;39.80;;;;;;1566690;74;706;-57
2021/11/08 08:52:53;;;;;;;;;;;22.40;39.60;;;;;;1562571;74;775;-59
2021/11/08 08:54:55;;;;;;;;;;;22.40;39.70;;;;;;1564921;74;1195;-59
2021/11/08 08:56:57;;;;;;;;;;;22.40;39.50;;;;;;1580716;74;790;-58
2021/11/08 08:58:58;;;;;;;;;;;22.30;39.50;;;;;;1589647;73;678;-57
2021/11/08 09:01:00;;;;;;;;;;;22.30;39.20;;;;;;1583874;74;789;-59
2021/11/08 09:03:02;;;;;;;;;;;22.30;39.20;;;;;;1583019;74;718;-58
2021/11/08 09:05:04;;;;;;;;;;;22.30;39.40;;;;;;1585772;74;1941;-57
2021/11/08 09:07:06;;;;;;;;;;;22.20;39.10;;;;;;1592701;73;710;-56
2021/11/08 09:09:08;;;;;;;;;;;22.30;39.10;;;;;;1592287;74;708;-58
2021/11/08 09:11:10;;;;;;;;;;;22.30;39.10;;;;;;1580769;74;714;-58
2021/11/08 09:13:12;;;;;;;;;;;22.20;39.00;;;;;;1579831;74;727;-59
2021/11/08 09:15:14;;;;;;;;;;;22.30;39.00;;;;;;1584193;73;1107;-59
2021/11/08 09:17:16;;;;;;;;;;;22.30;39.00;;;;;;1579109;73;765;-58
2021/11/08 09:19:18;;;;;;;;;;;22.20;38.80;;;;;;1580788;73;737;-59
2021/11/08 09:21:20;;;;;;;;;;;22.20;38.80;;;;;;1570900;73;797;-60
2021/11/08 09:23:22;;;;;;;;;;;22.20;38.80;;;;;;1585746;73;817;-58
2021/11/08 09:25:24;;;;;;;;;;;22.20;38.80;;;;;;1578543;74;1945;-58
2021/11/08 09:27:26;;;;;;;;;;;22.10;38.70;;;;;;1575295;73;687;-58
2021/11/08 09:29:28;;;;;;;;;;;22.10;38.60;;;;;;1584188;74;736;-58
2021/11/08 09:31:29;;;;;;;;;;;22.10;38.60;;;;;;1582593;74;685;-59
2021/11/08 09:33:32;;;;;;;;;;;22.10;38.60;;;;;;1585784;74;719;-57
2021/11/08 09:35:37;;;;;;;;;;;22.10;38.60;;;;;;1582642;73;1080;-61
2021/11/08 09:37:43;;;;;;;;;;;22.10;38.60;;;;;;1574335;73;1512;-62
2021/11/08 09:39:41;;;;;;;;;;;22.10;38.60;;;;;;1587502;74;1650;-62
2021/11/08 09:41:43;;;;;;;;;;;22.00;38.60;;;;;;1571242;74;802;-60
2021/11/08 09:43:44;;;;;;;;;;;22.10;38.80;;;;;;1582316;74;684;-60
2021/11/08 09:45:46;;;;;;;;;;;22.00;38.80;;;;;;1572153;73;1966;-58
2021/11/08 09:47:48;;;;;;;;;;;22.00;38.90;;;;;;1585369;75;808;-58
2021/11/08 09:49:53;;;;;;;;;;;22.00;38.90;;;;;;1589062;74;755;-58
2021/11/08 09:51:57;;;;;;;;;;;22.00;38.80;;;;;;1589082;73;783;-58
2021/11/08 09:53:59;;;;;;;;;;;22.10;38.80;;;;;;1567332;74;1892;-65
2021/11/08 09:56:01;;;;;;;;;;;22.10;38.90;;;;;;1593896;73;1149;-58
2021/11/08 09:58:03;;;;;;;;;;;22.00;38.90;;;;;;1590196;73;721;-59
2021/11/08 10:00:16;;;;;;;;;;;22.00;38.90;;;;;;1574815;74;796;-60
2021/11/08 10:02:18;;;;;;;;;;;22.00;38.90;;;;;;1587014;74;735;-61
2021/11/08 10:04:20;;;;;;;;;;;22.00;39.00;;;;;;1579091;73;1942;-60
2021/11/08 10:06:22;;;;;;;;;;;22.10;39.10;;;;;;1572078;73;1152;-58
2021/11/08 10:08:26;;;;;;;;;;;22.10;39.00;;;;;;1589235;73;816;-60
2021/11/08 10:10:28;;;;;;;;;;;22.10;39.10;;;;;;1586369;73;756;-60
2021/11/08 10:12:30;;;;;;;;;;;22.10;39.10;;;;;;1573450;74;775;-61
2021/11/08 10:14:32;;;;;;;;;;;22.10;39.10;;;;;;1588593;74;765;-59
2021/11/08 10:16:35;;;;;;;;;;;22.10;39.00;;;;;;1586665;74;1096;-60
2021/11/08 10:18:37;;;;;;;;;;;22.10;38.90;;;;;;1574940;73;767;-57
2021/11/08 10:20:41;;;;;;;;;;;22.20;38.90;;;;;;1575118;74;785;-61
2021/11/08 10:22:43;;;;;;;;;;;22.20;39.00;;;;;;1582862;74;702;-59
2021/11/08 10:24:46;;;;;;;;;;;22.20;38.90;;;;;;1583014;74;1941;-57
2021/11/08 10:26:49;;;;;;;;;;;22.20;38.90;;;;;;1584058;74;1080;-58
2021/11/08 10:28:52;;;;;;;;;;;22.10;38.90;;;;;;1580912;74;781;-59
2021/11/08 10:30:56;;;;;;;;;;;22.10;38.70;;;;;;1578106;73;727;-56
2021/11/08 10:33:12;;;;;;;;;;;22.10;38.60;;;;;;1578056;73;778;-54
2021/11/08 10:35:14;;;;;;;;;;;22.20;38.50;;;;;;1581889;74;1893;-57
2021/11/08 10:37:18;;;;;;;;;;;22.10;38.50;;;;;;1582961;74;745;-56
2021/11/08 10:39:20;;;;;;;;;;;22.20;38.50;;;;;;1584477;74;1345;-57
2021/11/08 10:41:23;;;;;;;;;;;22.20;38.50;;;;;;1585038;74;725;-57
2021/11/08 10:43:35;;;;;;;;;;;22.20;38.30;;;;;;1585456;74;840;-55
2021/11/08 10:45:48;;;;;;;;;;;22.20;38.40;;;;;;1585879;74;1956;-56
2021/11/08 10:48:05;;;;;;;;;;;22.10;38.30;;;;;;1584298;74;1636;-58
2021/11/08 10:50:08;;;;;;;;;;;22.20;38.40;;;;;;1584494;74;680;-59
2021/11/08 10:52:14;;;;;;;;;;;22.10;38.10;;;;;;1582189;74;1868;-57
2021/11/08 10:54:16;;;;;;;;;;;22.10;38.20;;;;;;1583935;74;1523;-59
2021/11/08 10:56:22;;;;;;;;;;;22.20;38.20;;;;;;1574304;73;1144;-59
2021/11/08 10:58:24;;;;;;;;;;;22.10;38.20;;;;;;1587915;73;751;-58
2021/11/08 11:00:25;;;;;;;;;;;22.10;38.20;;;;;;1587178;74;761;-58
2021/11/08 11:02:28;;;;;;;;;;;22.10;38.20;;;;;;1589087;73;790;-58
2021/11/08 11:04:37;;;;;;;;;;;22.10;38.20;;;;;;1592074;73;990;-58
2021/11/08 11:06:40;;;;;;;;;;;22.10;38.30;;;;;;1588898;74;1908;-58
2021/11/08 11:08:49;;;;;;;;;;;22.10;38.20;;;;;;1588111;73;782;-56
2021/11/08 11:10:52;;;;;;;;;;;22.10;38.10;;;;;;1582947;74;727;-57
2021/11/08 11:12:55;;;;;;;;;;;22.10;37.90;;;;;;1578109;73;780;-56
2021/11/08 11:15:01;;;;;;;;;;;22.10;37.80;;;;;;1581834;73;1128;-58
2021/11/08 11:17:04;;;;;;;;;;;22.10;37.80;;;;;;1578877;73;758;-58
2021/11/08 11:19:08;;;;;;;;;;;22.10;37.90;;;;;;1579694;73;766;-57
2021/11/08 11:21:17;;;;;;;;;;;22.10;38.00;;;;;;1583070;73;1067;-58
2021/11/08 11:23:26;;;;;;;;;;;22.10;38.00;;;;;;1586893;73;1055;-57
2021/11/08 11:25:24;;;;;;;;;;;22.10;38.00;;;;;;1580938;73;1921;-58
2021/11/08 11:27:28;;;;;;;;;;;22.00;37.80;;;;;;1596732;73;722;-58
2021/11/08 11:29:30;;;;;;;;;;;22.00;37.80;;;;;;1580421;73;782;-57
2021/11/08 11:31:33;;;;;;;;;;;22.10;37.70;;;;;;1589590;73;717;-57
2021/11/08 11:33:35;;;;;;;;;;;22.00;37.30;;;;;;1577653;73;876;-57
2021/11/08 11:35:40;;;;;;;;;;;22.00;37.40;;;;;;1590149;73;1145;-58
2021/11/08 11:37:43;;;;;;;;;;;22.10;37.50;;;;;;1586845;73;686;-58
2021/11/08 11:39:45;;;;;;;;;;;22.00;37.60;;;;;;1579762;73;1162;-58
2021/11/08 11:41:48;;;;;;;;;;;22.00;37.50;;;;;;1570534;73;713;-58
2021/11/08 11:43:55;;;;;;;;;;;21.90;37.50;;;;;;1578459;73;768;-56
2021/11/08 11:45:57;;;;;;;;;;;21.90;37.50;;;;;;1575184;73;2076;-57
2021/11/08 11:48:00;;;;;;;;;;;21.90;37.50;;;;;;1585533;73;821;-58
2021/11/08 11:50:02;;;;;;;;;;;22.00;37.70;;;;;;1578167;73;776;-58
2021/11/08 11:52:04;;;;;;;;;;;22.00;37.60;;;;;;1584638;73;786;-58
2021/11/08 11:54:06;;;;;;;;;;;21.90;37.20;;;;;;1583818;73;695;-58
2021/11/08 11:56:08;;;;;;;;;;;22.00;37.10;;;;;;1573919;73;1124;-60
2021/11/08 11:58:10;;;;;;;;;;;21.90;37.30;;;;;;1580071;73;726;-60
2021/11/08 12:00:12;;;;;;;;;;;21.90;37.30;;;;;;1582485;73;817;-58
2021/11/08 12:02:14;;;;;;;;;;;21.90;37.20;;;;;;1585392;73;750;-57
2021/11/08 12:04:16;;;;;;;;;;;21.90;37.30;;;;;;1583465;73;830;-58
2021/11/08 12:06:20;;;;;;;;;;;21.90;37.30;;;;;;1582048;73;1956;-59
2021/11/08 12:08:22;;;;;;;;;;;22.00;37.40;;;;;;1590855;73;1127;-58
2021/11/08 12:10:24;;;;;;;;;;;21.90;37.60;;;;;;1581305;73;789;-59
2021/11/08 12:12:26;;;;;;;;;;;21.90;37.40;;;;;;1591329;73;794;-59
2021/11/08 12:14:30;;;;;;;;;;;21.90;37.70;;;;;;1580636;73;709;-58
2021/11/08 12:16:33;;;;;;;;;;;21.90;37.60;;;;;;1588149;73;1803;-57
2021/11/08 12:18:35;;;;;;;;;;;21.90;37.60;;;;;;1572948;73;774;-59
2021/11/08 12:20:44;;;;;;;;;;;21.90;37.50;;;;;;1581774;73;787;-60
2021/11/08 12:22:46;;;;;;;;;;;21.90;37.60;;;;;;1576379;74;829;-60
2021/11/08 12:24:57;;;;;;;;;;;21.80;37.80;;;;;;1577340;74;749;-61
2021/11/08 12:27:03;;;;;;;;;;;21.90;38.10;;;;;;1571114;74;1942;-60
2021/11/08 12:29:09;;;;;;;;;;;21.90;38.40;;;;;;1580298;74;687;-61
2021/11/08 12:31:11;;;;;;;;;;;21.90;38.50;;;;;;1585607;74;768;-59
2021/11/08 12:33:18;;;;;;;;;;;21.90;38.80;;;;;;1575814;74;735;-60
2021/11/08 12:35:31;;;;;;;;;;;21.80;38.90;;;;;;1576939;74;1155;-59
2021/11/08 12:37:36;;;;;;;;;;;21.80;39.10;;;;;;1566910;74;723;-59
2021/11/08 12:39:38;;;;;;;;;;;21.80;39.20;;;;;;1578072;74;760;-61
2021/11/08 12:41:51;;;;;;;;;;;21.80;39.40;;;;;;1582232;74;806;-62
2021/11/08 12:43:53;;;;;;;;;;;21.80;39.60;;;;;;1569106;73;1600;-59
2021/11/08 12:45:55;;;;;;;;;;;21.80;39.70;;;;;;1583212;73;1950;-59
2021/11/08 12:48:00;;;;;;;;;;;21.80;40.00;;;;;;1577367;74;711;-59
2021/11/08 12:50:02;;;;;;;;;;;21.80;40.10;;;;;;1584570;74;802;-61
2021/11/08 12:52:15;;;;;;;;;;;21.80;40.10;;;;;;1576216;74;725;-60
2021/11/08 12:54:16;;;;;;;;;;;21.80;40.20;;;;;;1585132;74;734;-61
2021/11/08 12:56:25;;;;;;;;;;;21.90;40.50;;;;;;1571911;74;1149;-60
2021/11/08 12:58:38;;;;;;;;;;;21.80;40.50;;;;;;1579149;74;725;-60
2021/11/08 13:00:41;;;;;;;;;;;21.80;40.60;;;;;;1578535;74;726;-59
2021/11/08 13:02:51;;;;;;;;;;;21.90;40.80;;;;;;1577279;73;780;-61
2021/11/08 13:04:50;;;;;;;;;;;21.90;40.90;;;;;;1577516;73;1612;-60
2021/11/08 13:06:52;;;;;;;;;;;21.90;41.00;;;;;;1581471;74;1935;-59
2021/11/08 13:09:04;;;;;;;;;;;21.90;41.10;;;;;;1565320;74;795;-60
2021/11/08 13:11:11;;;;;;;;;;;21.90;41.40;;;;;;1584047;74;1130;-60
2021/11/08 13:13:15;;;;;;;;;;;21.90;41.50;;;;;;1571952;73;913;-60
2021/11/08 13:15:21;;;;;;;;;;;21.90;41.60;;;;;;1580820;73;1947;-60
2021/11/08 13:17:23;;;;;;;;;;;22.00;41.80;;;;;;1588831;73;883;-60
2021/11/08 13:19:25;;;;;;;;;;;21.90;41.80;;;;;;1581535;73;803;-60
2021/11/08 13:21:27;;;;;;;;;;;21.90;41.90;;;;;;1583572;74;761;-60
2021/11/08 13:23:30;;;;;;;;;;;21.90;41.90;;;;;;1560404;75;779;-58
2021/11/08 13:25:34;;;;;;;;;;;21.90;42.10;;;;;;1570818;73;1957;-58
2021/11/08 13:27:36;;;;;;;;;;;22.00;42.10;;;;;;1589793;73;759;-59
2021/11/08 13:29:38;;;;;;;;;;;21.90;42.10;;;;;;1583540;73;779;-61
2021/11/08 13:31:40;;;;;;;;;;;22.00;42.10;;;;;;1587644;73;789;-56
2021/11/08 13:33:43;;;;;;;;;;;22.00;42.20;;;;;;1582785;73;692;-60
2021/11/08 13:35:45;;;;;;;;;;;21.90;42.20;;;;;;1585744;74;1173;-57
2021/11/08 13:37:47;;;;;;;;;;;22.00;42.30;;;;;;1587746;74;858;-56
2021/11/08 13:39:51;;;;;;;;;;;22.00;42.30;;;;;;1591385;73;621;-60
2021/11/08 13:41:52;;;;;;;;;;;22.00;42.40;;;;;;1572117;73;750;-56
2021/11/08 13:44:01;;;;;;;;;;;22.10;42.50;;;;;;1579579;73;625;-60
2021/11/08 13:46:05;;;;;;;;;;;22.00;42.50;;;;;;1585832;74;1957;-59
2021/11/08 13:48:06;;;;;;;;;;;22.00;42.50;;;;;;1583004;74;1934;-60
2021/11/08 13:50:10;;;;;;;;;;;22.00;42.50;;;;;;1580875;74;798;-58
2021/11/08 13:52:12;;;;;;;;;;;22.00;42.60;;;;;;1582823;74;670;-61
2021/11/08 13:54:16;;;;;;;;;;;22.00;42.60;;;;;;1553207;75;834;-57
2021/11/08 13:56:20;;;;;;;;;;;22.00;42.60;;;;;;1582325;74;1148;-61
2021/11/08 13:58:22;;;;;;;;;;;22.00;42.60;;;;;;1583610;74;690;-60